Bookmark and Share
Track history (hours):
 

Ice Bird

Last reported at 2014-Apr-21 09:33 UTC. Time now 2014-Apr-21 10:22 UTC.
Position N 69°38' E 018°57'.

Length 93 m; draft 4.2 m.

Type: Cargo ship. MMSI: 305846000.

NotesDate/timePositionNaut miles runAvg speedWind from/ knotsBaromVisibWave heightAir tempDewpointWater temp
2014-Apr-21 09:33N 69°38' E 018°57'0 0.0
2014-Apr-21 08:33N 69°38' E 018°57'0 0.0
2014-Apr-21 07:33N 69°38' E 018°57'0 0.0
2014-Apr-21 06:33N 69°38' E 018°57'0 0.0
2014-Apr-21 05:33N 69°38' E 018°57'0 0.0
2014-Apr-21 04:33N 69°38' E 018°57'0 0.0
2014-Apr-21 03:33N 69°38' E 018°57'0 0.0
2014-Apr-21 02:33N 69°38' E 018°57'0 0.0
2014-Apr-21 01:33N 69°38' E 018°57'0 0.0
2014-Apr-21 00:33N 69°38' E 018°57'0 0.0
2014-Apr-20 23:33N 69°38' E 018°57'0 0.0
2014-Apr-20 22:34N 69°38' E 018°57'0 0.0
2014-Apr-20 21:33N 69°38' E 018°57'0 0.0
2014-Apr-20 20:33N 69°38' E 018°57'0 0.0
2014-Apr-20 19:33N 69°38' E 018°57'0 0.0
2014-Apr-20 18:33N 69°38' E 018°57'0 0.0
2014-Apr-20 17:33N 69°38' E 018°57'0 0.0
2014-Apr-20 16:33N 69°38' E 018°57'0 0.0
2014-Apr-20 15:34N 69°38' E 018°57'0 0.0
2014-Apr-20 14:33N 69°38' E 018°57'0 0.0
2014-Apr-20 13:34N 69°38' E 018°57'0 0.0
2014-Apr-20 12:33N 69°38' E 018°57'0 0.0
2014-Apr-20 11:33N 69°38' E 018°57'0 0.0
2014-Apr-20 10:33N 69°38' E 018°57'0 0.0
2014-Apr-20 09:33N 69°38' E 018°57'0 0.0
2014-Apr-20 08:34N 69°38' E 018°57'0 0.0
2014-Apr-20 07:34N 69°38' E 018°57'0 0.0
2014-Apr-20 06:33N 69°38' E 018°57'0 0.0
2014-Apr-20 05:33N 69°38' E 018°57'0 0.0
2014-Apr-20 04:33N 69°38' E 018°57'0 0.0
2014-Apr-20 03:34N 69°38' E 018°57'0 0.0
2014-Apr-20 02:33N 69°38' E 018°57'0 0.0
2014-Apr-20 01:34N 69°38' E 018°57'0 0.0
2014-Apr-20 00:33N 69°38' E 018°57'0 0.0
2014-Apr-19 23:33N 69°38' E 018°57'0 0.0
2014-Apr-19 22:33N 69°38' E 018°57'0 0.0
2014-Apr-19 21:34N 69°38' E 018°57'0 0.0
2014-Apr-19 20:34N 69°38' E 018°57'0 0.0
2014-Apr-19 19:33N 69°38' E 018°57'0 0.1
2014-Apr-19 18:33N 69°38' E 018°57'14612.1
2014-Apr-19 06:28N 67°50' E 014°26'17 7.2
2014-Apr-19 04:09N 67°33' E 014°20'712.5
2014-Apr-19 03:33N 67°26' E 014°26'1313.3
2014-Apr-19 02:34N 67°14' E 014°09'5213.1
2014-Apr-18 22:34N 66°30' E 012°59'29010.7
2014-Apr-17 19:28N 62°37' E 006°18'1112.3
2014-Apr-17 18:33N 62°27' E 006°05'3 1.3
2014-Apr-17 16:33N 62°27' E 006°10'19811.0
2014-Apr-16 22:33N 59°11' E 005°21'1313.1
2014-Apr-16 21:33N 58°58' E 005°19'1212.4
2014-Apr-16 20:33N 58°46' E 005°14'1412.6
2014-Apr-16 19:24N 58°32' E 005°09'1612.8
2014-Apr-16 18:09N 58°16' E 005°11'813.0
2014-Apr-16 17:33N 58°08' E 005°14'24712.4
2014-Apr-15 21:33N 54°01' E 004°55'1010.2
2014-Apr-15 20:33N 53°51' E 004°51'1410.3
2014-Apr-15 19:12N 53°37' E 004°49'710.4
2014-Apr-15 18:33N 53°30' E 004°47'1111.4
2014-Apr-15 17:32N 53°20' E 004°39'1812.3
2014-Apr-15 16:03N 53°02' E 004°30'612.7
2014-Apr-15 15:33N 52°56' E 004°30'1313.3
2014-Apr-15 14:33N 52°43' E 004°31'13 6.3
2014-Apr-15 12:34N 52°30' E 004°29'5 4.8
2014-Apr-15 11:34N 52°28' E 004°36'2 2.4
2014-Apr-15 10:34N 52°28' E 004°40'0 0.0
2014-Apr-15 09:34N 52°28' E 004°40'0 0.0
2014-Apr-15 08:34N 52°28' E 004°40'0 0.0
2014-Apr-15 07:33N 52°28' E 004°40'0 0.0
2014-Apr-15 06:33N 52°28' E 004°40'0 0.0
2014-Apr-15 05:33N 52°28' E 004°40'0 0.0
2014-Apr-15 03:33N 52°28' E 004°40'0 0.0
2014-Apr-15 02:34N 52°28' E 004°40'0 0.0
2014-Apr-15 01:34N 52°28' E 004°40'0 0.0
2014-Apr-14 23:33N 52°28' E 004°40'0 0.0
2014-Apr-14 22:34N 52°28' E 004°40'0 0.0
2014-Apr-14 21:34N 52°28' E 004°40'0 0.0
2014-Apr-14 20:33N 52°28' E 004°40'0 0.0
2014-Apr-14 19:33N 52°28' E 004°40'0 0.0
2014-Apr-14 18:34N 52°28' E 004°40'0 0.0
2014-Apr-14 17:34N 52°28' E 004°40'0 0.0
2014-Apr-14 16:33N 52°28' E 004°40'0 0.0
2014-Apr-14 15:33N 52°28' E 004°40'0 0.0
2014-Apr-14 14:33N 52°28' E 004°40'71367151.6
2014-Apr-14 13:33S 66°22' E 000°00'71363567.9
2014-Apr-14 11:33N 52°28' E 004°40'0 0.0
2014-Apr-14 10:33N 52°28' E 004°40'0 0.0
2014-Apr-14 09:33N 52°28' E 004°40'0 0.0
2014-Apr-14 08:33N 52°28' E 004°40'0 0.0
2014-Apr-14 07:33N 52°28' E 004°40'0 0.0
2014-Apr-14 06:33N 52°28' E 004°40'0 0.0
2014-Apr-14 05:33N 52°28' E 004°40'0 0.0
2014-Apr-13 22:33N 52°28' E 004°40'0 0.0
2014-Apr-13 21:33N 52°28' E 004°40'0 0.0
2014-Apr-13 20:33N 52°28' E 004°40'0 0.0
2014-Apr-13 19:33N 52°28' E 004°40'0 0.0
2014-Apr-13 18:33N 52°28' E 004°40'0 0.0
2014-Apr-13 17:33N 52°28' E 004°40'0 0.0
2014-Apr-13 16:33N 52°28' E 004°40'0 0.0
2014-Apr-13 15:33N 52°28' E 004°40'0 0.0
2014-Apr-13 14:33N 52°28' E 004°40'0 0.0
2014-Apr-13 13:33N 52°28' E 004°40'0 0.0
2014-Apr-13 12:33N 52°28' E 004°40'0 0.0
2014-Apr-13 11:33N 52°28' E 004°40'0 0.0
2014-Apr-13 09:33N 52°28' E 004°40'0 0.0
2014-Apr-13 08:33N 52°28' E 004°40'0 0.0
2014-Apr-13 07:33N 52°28' E 004°40'0 0.0
2014-Apr-13 06:33N 52°28' E 004°40'0 0.0
2014-Apr-13 05:33N 52°28' E 004°40'0 0.0
2014-Apr-13 04:33N 52°28' E 004°40'0 0.0
2014-Apr-13 03:33N 52°28' E 004°40'0 0.0
2014-Apr-13 02:33N 52°28' E 004°40'0 0.0
2014-Apr-13 01:33N 52°28' E 004°40'0 0.0
2014-Apr-13 00:33N 52°28' E 004°40'0 0.0
2014-Apr-12 23:33N 52°28' E 004°40'0 0.0
2014-Apr-12 22:33N 52°28' E 004°40'0 0.0
2014-Apr-12 21:33N 52°28' E 004°40'0 0.0
2014-Apr-12 20:33N 52°28' E 004°40'0 0.0
2014-Apr-12 19:33N 52°28' E 004°40'0 0.0
2014-Apr-12 18:33N 52°28' E 004°40'0 0.0
2014-Apr-12 17:34N 52°28' E 004°40'0 0.0
2014-Apr-12 16:33N 52°28' E 004°40'0 0.0
2014-Apr-12 15:33N 52°28' E 004°40'0 0.0
2014-Apr-12 14:33N 52°28' E 004°40'0 0.0
2014-Apr-12 13:33N 52°28' E 004°40'0 0.0
2014-Apr-12 12:33N 52°28' E 004°40'0 0.0
2014-Apr-12 11:33N 52°28' E 004°40'0 0.0
2014-Apr-12 10:33N 52°28' E 004°40'0 0.0
2014-Apr-12 09:33N 52°28' E 004°40'0 0.0
2014-Apr-12 08:33N 52°28' E 004°40'0 0.0
2014-Apr-12 07:33N 52°28' E 004°40'0 0.0
2014-Apr-12 06:33N 52°28' E 004°40'0 0.0
2014-Apr-12 05:33N 52°28' E 004°40'0 0.0
2014-Apr-12 04:33N 52°28' E 004°40'0 0.0
2014-Apr-12 03:33N 52°28' E 004°40'0 0.0
2014-Apr-12 02:33N 52°28' E 004°40'0 0.0
2014-Apr-12 01:33N 52°28' E 004°40'2 2.5
2014-Apr-12 00:33N 52°28' E 004°36'7 7.3
2014-Apr-11 23:33N 52°34' E 004°29'1312.4
2014-Apr-11 22:30N 52°47' E 004°29'1613.3
2014-Apr-11 21:17N 53°03' E 004°32'5112.2
2014-Apr-11 17:04N 53°53' E 004°50'  

Dump ship's entire track history

sailing weather and tide predictions

Ice Bird — V2QK4 — position and weather